South Charleston, Ohio
Current Conditions -  °F | °C
As of 12:56 PM on Friday 28 Nov 2014 (Local Time) from KSGH Reporting Station
Scattered Clouds Scattered Clouds  
Wind Chill: 20°   Ceiling: Unl
Heat Index: 29°   Visibility: 7mi
Dew Point: 19°   Wind: 10mph
Humidity: 66%   Direction: 190°S
Pressure: 30.28"   Gusts: NA
Location:  39.83°N, 83.63°W
Report Text: KSGH 281756Z AUTO 19009KT 7SM FEW023 SCT045 M02/M07 A3028 RMK AO2 58025 T10161072 11016 21072 SLP268 $
Loading
Personal Weather Stations






























Interactive Weather Map New forecast layout! Learn more

10-Day Weather Forecast

Advertisements
Track Severe Weather on mobile